createdAt,value
2023-05-14T00:02:12.906Z,87.43
2023-05-14T00:04:41.096Z,90.10
2023-05-14T00:07:08.067Z,93.17
2023-05-14T00:09:35.513Z,86.33
2023-05-14T00:12:02.550Z,93.50
2023-05-14T00:14:29.491Z,92.63
2023-05-14T00:16:56.468Z,87.97
2023-05-14T00:19:23.725Z,86.93
2023-05-14T00:21:50.734Z,86.13
2023-05-14T00:24:17.655Z,94.33
2023-05-14T00:26:44.801Z,92.00
2023-05-14T00:29:11.846Z,89.00
2023-05-14T00:31:38.813Z,102.93
2023-05-14T00:34:05.866Z,94.03
2023-05-14T00:36:32.812Z,97.33
2023-05-14T00:38:59.696Z,97.70
2023-05-14T00:41:26.609Z,92.03
2023-05-14T00:43:53.784Z,96.30
2023-05-14T00:46:20.792Z,86.10
2023-05-14T00:48:47.853Z,92.73
2023-05-14T00:51:14.900Z,98.53
2023-05-14T00:53:42.208Z,94.53
2023-05-14T00:56:10.990Z,93.20
2023-05-14T00:58:38.128Z,94.93
2023-05-14T01:01:05.282Z,94.43
2023-05-14T01:03:32.806Z,93.90
2023-05-14T01:06:32.548Z,83.10
2023-05-14T01:09:19.079Z,89.80
2023-05-14T01:12:02.745Z,87.73
2023-05-14T01:14:52.282Z,91.80
2023-05-14T01:17:21.671Z,85.00
2023-05-14T01:19:49.008Z,87.40
2023-05-14T01:22:16.420Z,97.10
2023-05-14T01:24:43.326Z,88.90
2023-05-14T01:27:26.635Z,96.10
2023-05-14T01:30:13.961Z,94.30
2023-05-14T01:32:41.917Z,89.27
2023-05-14T01:35:10.685Z,89.17
2023-05-14T01:37:38.707Z,90.73
2023-05-14T01:40:07.076Z,88.50
2023-05-14T01:42:34.665Z,84.27
2023-05-14T01:45:02.467Z,98.03
2023-05-14T01:47:29.455Z,97.10
2023-05-14T01:49:56.433Z,102.00
2023-05-14T01:52:23.519Z,92.03
2023-05-14T01:54:50.560Z,100.37
2023-05-14T01:57:17.557Z,99.37
2023-05-14T01:59:44.450Z,98.87
2023-05-14T02:02:11.485Z,94.77
2023-05-14T02:04:38.371Z,93.93
2023-05-14T02:07:05.489Z,100.93
2023-05-14T02:09:32.571Z,106.70
2023-05-14T02:11:59.505Z,95.73
2023-05-14T02:14:26.436Z,95.87
2023-05-14T02:16:53.358Z,94.13
2023-05-14T02:19:20.402Z,86.77
2023-05-14T02:21:48.222Z,85.80
2023-05-14T02:24:15.225Z,90.70
2023-05-14T02:26:42.384Z,92.37
2023-05-14T02:29:09.338Z,94.10
2023-05-14T02:31:36.446Z,88.73
2023-05-14T02:34:04.402Z,96.63
2023-05-14T02:36:31.840Z,100.43
2023-05-14T02:39:01.181Z,89.17
2023-05-14T02:41:28.324Z,96.83
2023-05-14T02:43:55.210Z,100.00
2023-05-14T02:46:22.419Z,89.10
2023-05-14T02:48:49.365Z,94.47
2023-05-14T02:51:16.759Z,94.47
2023-05-14T02:53:43.671Z,90.47
2023-05-14T02:56:10.617Z,90.83
2023-05-14T02:58:37.512Z,90.27
2023-05-14T03:01:04.756Z,91.93
2023-05-14T03:03:32.064Z,95.73
2023-05-14T03:05:59.621Z,88.40
2023-05-14T03:08:26.545Z,90.03
2023-05-14T03:10:53.486Z,92.37
2023-05-14T03:13:20.798Z,88.43
2023-05-14T03:15:48.010Z,93.03
2023-05-14T03:18:15.243Z,90.83
2023-05-14T03:20:42.436Z,86.23
2023-05-14T03:23:09.410Z,86.37
2023-05-14T03:25:36.442Z,92.10
2023-05-14T03:28:04.105Z,95.27
2023-05-14T03:30:31.106Z,88.77
2023-05-14T03:32:58.124Z,93.77
2023-05-14T03:35:25.123Z,92.97
2023-05-14T03:37:53.094Z,96.53
2023-05-14T03:40:21.400Z,96.93
2023-05-14T03:42:48.556Z,84.20
2023-05-14T03:45:15.492Z,98.40
2023-05-14T03:47:42.478Z,87.27
2023-05-14T03:50:09.656Z,92.23
2023-05-14T03:52:36.775Z,85.87
2023-05-14T03:55:04.332Z,88.70
2023-05-14T03:57:31.310Z,88.93
2023-05-14T03:59:58.401Z,87.30
2023-05-14T04:02:25.532Z,98.07
2023-05-14T04:04:52.607Z,102.30
2023-05-14T04:07:19.620Z,102.50
2023-05-14T04:09:46.505Z,101.57
2023-05-14T04:12:13.549Z,106.03
2023-05-14T04:14:40.583Z,92.63
2023-05-14T04:17:07.508Z,104.17
2023-05-14T04:19:34.381Z,101.50
2023-05-14T04:22:01.352Z,96.83
2023-05-14T04:24:28.241Z,102.03
2023-05-14T04:26:55.193Z,100.70
2023-05-14T04:29:22.212Z,102.00
2023-05-14T04:31:49.922Z,107.80
2023-05-14T04:34:16.894Z,102.80
2023-05-14T04:36:43.820Z,95.80
2023-05-14T04:39:12.924Z,103.70
2023-05-14T04:41:39.903Z,104.40
2023-05-14T04:44:07.196Z,105.87
2023-05-14T04:46:34.196Z,104.70
2023-05-14T04:49:01.239Z,104.10
2023-05-14T04:51:28.632Z,100.17
2023-05-14T04:53:55.524Z,96.97
2023-05-14T04:56:22.405Z,108.27
2023-05-14T04:58:49.294Z,106.23
2023-05-14T05:01:16.272Z,104.50
2023-05-14T05:03:43.278Z,98.97
2023-05-14T05:06:10.346Z,100.60
2023-05-14T05:08:37.666Z,92.57
2023-05-14T05:11:05.211Z,92.43
2023-05-14T05:13:32.346Z,95.80
2023-05-14T05:15:59.483Z,95.13
2023-05-14T05:18:26.562Z,90.37
2023-05-14T05:20:53.610Z,89.73
2023-05-14T05:23:20.532Z,94.37
2023-05-14T05:25:47.442Z,97.23
2023-05-14T05:28:14.522Z,92.27
2023-05-14T05:30:41.459Z,87.87
2023-05-14T05:33:08.495Z,83.80
2023-05-14T05:35:35.571Z,89.33
2023-05-14T05:38:02.456Z,81.73
2023-05-14T05:40:29.500Z,86.23
2023-05-14T05:42:56.413Z,78.47
2023-05-14T05:45:23.430Z,80.83
2023-05-14T05:47:50.453Z,81.27
2023-05-14T05:50:18.965Z,74.13
2023-05-14T05:52:46.980Z,74.23
2023-05-14T05:55:13.905Z,64.77
2023-05-14T05:57:40.863Z,78.77
2023-05-14T06:00:14.437Z,73.57
2023-05-14T06:02:41.835Z,75.63
2023-05-14T06:05:10.939Z,74.33
2023-05-14T06:07:38.413Z,78.70
2023-05-14T06:10:06.500Z,79.70
2023-05-14T06:12:33.487Z,81.93
2023-05-14T06:15:00.478Z,79.03
2023-05-14T06:17:27.741Z,72.20
2023-05-14T06:19:54.673Z,75.60
2023-05-14T06:22:21.591Z,72.43
2023-05-14T06:24:49.116Z,72.93
2023-05-14T06:27:16.039Z,70.30
2023-05-14T06:29:42.936Z,75.70
2023-05-14T06:32:10.472Z,67.97
2023-05-14T06:34:37.536Z,78.63
2023-05-14T06:37:04.749Z,71.00
2023-05-14T06:39:31.764Z,63.43
2023-05-14T06:41:58.661Z,70.40
2023-05-14T06:44:25.632Z,62.57
2023-05-14T06:46:52.568Z,62.37
2023-05-14T06:49:19.585Z,72.03
2023-05-14T06:51:46.544Z,65.70
2023-05-14T06:54:13.589Z,60.20
2023-05-14T06:56:40.567Z,60.60
2023-05-14T06:59:07.451Z,61.50
2023-05-14T07:01:34.397Z,65.37
2023-05-14T07:04:02.833Z,61.73
2023-05-14T07:06:29.772Z,68.50
2023-05-14T07:08:56.694Z,59.00
2023-05-14T07:11:23.607Z,57.93
2023-05-14T07:13:50.703Z,59.67
2023-05-14T07:16:17.692Z,56.03
2023-05-14T07:18:45.497Z,58.17
2023-05-14T07:21:12.692Z,55.37
2023-05-14T07:23:39.620Z,57.07
2023-05-14T07:26:08.521Z,53.67
2023-05-14T07:28:35.768Z,57.03
2023-05-14T07:31:05.095Z,66.70
2023-05-14T07:33:32.127Z,63.20
2023-05-14T07:35:59.010Z,57.50
2023-05-14T07:38:25.997Z,58.67
2023-05-14T07:40:52.933Z,53.80
2023-05-14T07:43:19.827Z,54.37
2023-05-14T07:45:46.791Z,56.53
2023-05-14T07:48:13.850Z,55.80
2023-05-14T07:50:40.841Z,56.90
2023-05-14T07:53:08.052Z,61.00
2023-05-14T07:55:34.995Z,54.90
2023-05-14T07:58:01.875Z,51.63
2023-05-14T08:00:29.013Z,56.83
2023-05-14T08:02:56.267Z,54.60
2023-05-14T08:05:23.404Z,54.20
2023-05-14T08:07:50.311Z,52.67
2023-05-14T08:10:17.197Z,53.05
2023-05-14T08:12:44.191Z,54.87
2023-05-14T08:15:11.433Z,56.73
2023-05-14T08:17:38.417Z,51.60
2023-05-14T08:20:06.774Z,55.07
2023-05-14T08:22:33.760Z,49.95
2023-05-14T08:25:02.868Z,50.40
2023-05-14T08:27:29.781Z,51.38
2023-05-14T08:29:56.996Z,50.90
2023-05-14T08:32:24.374Z,49.57
2023-05-14T08:34:51.771Z,56.05
2023-05-14T08:37:18.935Z,49.47
2023-05-14T08:39:45.938Z,47.90
2023-05-14T08:42:13.873Z,45.97
2023-05-14T08:44:52.413Z,46.30
2023-05-14T08:47:22.409Z,46.42
2023-05-14T08:50:04.814Z,47.50
2023-05-14T08:52:32.329Z,48.38
2023-05-14T08:55:06.443Z,46.80
2023-05-14T08:57:34.498Z,47.10
2023-05-14T09:00:13.154Z,43.67
2023-05-14T09:02:41.794Z,41.60
2023-05-14T09:05:09.453Z,41.55
2023-05-14T09:07:36.696Z,38.50
2023-05-14T09:10:04.721Z,35.72
2023-05-14T09:12:31.683Z,36.65
2023-05-14T09:14:58.641Z,36.05
2023-05-14T09:17:27.885Z,37.38
2023-05-14T09:19:55.047Z,39.00
2023-05-14T09:22:22.475Z,41.92
2023-05-14T09:25:12.496Z,39.65
2023-05-14T09:27:39.671Z,34.83
2023-05-14T09:30:12.397Z,37.22
2023-05-14T09:32:44.182Z,31.33
2023-05-14T09:35:24.318Z,32.58
2023-05-14T09:37:54.432Z,28.25
2023-05-14T09:40:24.120Z,26.48
2023-05-14T09:42:51.621Z,30.80
2023-05-14T09:45:18.927Z,30.67
2023-05-14T09:47:46.265Z,28.10
2023-05-14T09:50:13.343Z,30.50
2023-05-14T09:52:40.506Z,29.75
2023-05-14T09:55:08.314Z,33.63
2023-05-14T09:57:35.446Z,30.70
2023-05-14T10:00:02.822Z,30.65
2023-05-14T10:02:41.373Z,31.27
2023-05-14T10:05:09.759Z,30.55
2023-05-14T10:07:45.504Z,28.17
2023-05-14T10:10:17.151Z,27.63
2023-05-14T10:12:52.493Z,30.13
2023-05-14T10:15:41.664Z,31.65
2023-05-14T10:18:17.307Z,24.15
2023-05-14T10:20:49.146Z,27.25
2023-05-14T10:23:16.461Z,28.02
2023-05-14T10:25:43.875Z,25.42
2023-05-14T10:28:11.674Z,24.40
2023-05-14T10:30:49.523Z,23.50
2023-05-14T10:33:18.477Z,24.88
2023-05-14T10:36:07.344Z,23.40
2023-05-14T10:38:36.895Z,25.98
2023-05-14T10:41:07.101Z,23.80
2023-05-14T10:43:39.767Z,28.67
2023-05-14T10:46:08.838Z,23.98
2023-05-14T10:48:38.059Z,20.90
2023-05-14T10:51:09.299Z,22.70
2023-05-14T10:53:40.666Z,26.00
2023-05-14T10:56:10.988Z,18.15
2023-05-14T10:58:44.041Z,21.83
2023-05-14T11:01:13.177Z,22.02
2023-05-14T11:03:45.904Z,22.33
2023-05-14T11:06:15.549Z,21.73
2023-05-14T11:08:42.956Z,23.00
2023-05-14T11:11:10.979Z,21.70
2023-05-14T11:13:39.674Z,21.27
2023-05-14T11:18:38.677Z,20.73
2023-05-14T11:21:05.773Z,18.75
2023-05-14T11:23:32.799Z,20.63
2023-05-14T11:25:59.728Z,22.58
2023-05-14T11:28:27.249Z,21.58
2023-05-14T11:30:54.703Z,21.45
2023-05-14T11:33:21.654Z,22.70
2023-05-14T11:35:48.829Z,20.15
2023-05-14T11:38:21.192Z,21.10
2023-05-14T11:40:58.710Z,22.02
2023-05-14T11:43:29.139Z,20.20
2023-05-14T11:45:56.613Z,15.55
2023-05-14T11:48:24.576Z,18.10
2023-05-14T11:50:53.132Z,17.48
2023-05-14T11:53:26.371Z,24.95
2023-05-14T11:55:54.623Z,16.55
2023-05-14T11:58:22.127Z,16.95
2023-05-14T12:00:53.755Z,20.42
2023-05-14T12:03:25.516Z,20.00
2023-05-14T12:06:01.564Z,18.05
2023-05-14T12:08:31.338Z,15.77
2023-05-14T12:11:02.094Z,14.63
2023-05-14T12:13:31.226Z,25.50
2023-05-14T12:16:00.834Z,21.98
2023-05-14T12:18:31.655Z,15.27
2023-05-14T12:21:08.166Z,16.35
2023-05-14T12:23:35.869Z,16.33
2023-05-14T12:26:07.997Z,16.92
2023-05-14T12:28:38.292Z,14.20
2023-05-14T12:31:05.638Z,17.65
2023-05-14T12:33:32.640Z,15.13
2023-05-14T12:36:19.853Z,15.90
2023-05-14T12:38:48.336Z,11.23
2023-05-14T12:41:15.269Z,13.15
2023-05-14T12:43:44.572Z,14.00
2023-05-14T12:46:11.571Z,14.68
2023-05-14T12:48:38.647Z,12.10
2023-05-14T12:51:06.219Z,16.85
2023-05-14T12:53:34.148Z,15.18
2023-05-14T12:56:01.418Z,13.10
2023-05-14T12:58:28.298Z,13.45
2023-05-14T13:00:55.294Z,13.95
2023-05-14T13:03:22.377Z,13.35
2023-05-14T13:05:49.374Z,14.07
2023-05-14T13:08:17.832Z,12.07
2023-05-14T13:10:45.474Z,13.02
2023-05-14T13:13:12.945Z,14.10
2023-05-14T13:15:39.847Z,16.20
2023-05-14T13:18:06.906Z,14.13
2023-05-14T13:20:34.754Z,13.40
2023-05-14T13:23:01.657Z,12.35
2023-05-14T13:25:28.849Z,12.20
2023-05-14T13:27:56.065Z,12.23
2023-05-14T13:30:22.979Z,12.20
2023-05-14T13:32:50.070Z,12.35
2023-05-14T13:35:17.160Z,10.80
2023-05-14T13:37:44.693Z,13.20
2023-05-14T13:40:12.398Z,16.13
2023-05-14T13:42:42.495Z,15.73
2023-05-14T13:45:10.035Z,12.32
2023-05-14T13:47:36.998Z,12.63
2023-05-14T13:50:04.562Z,10.23
2023-05-14T13:52:31.447Z,14.70
2023-05-14T13:54:58.403Z,8.52
2023-05-14T13:57:26.028Z,15.35
2023-05-14T13:59:52.979Z,14.77
2023-05-14T14:02:19.919Z,16.55
2023-05-14T14:04:46.895Z,16.52
2023-05-14T14:07:13.773Z,17.20
2023-05-14T14:09:40.743Z,17.17
2023-05-14T14:12:09.105Z,16.00
2023-05-14T14:14:36.015Z,15.43
2023-05-14T14:17:02.990Z,13.25
2023-05-14T14:19:30.045Z,17.73
2023-05-14T14:21:57.087Z,20.80
2023-05-14T14:24:24.030Z,20.50
2023-05-14T14:26:50.939Z,16.70
2023-05-14T14:29:17.814Z,18.85
2023-05-14T14:31:44.746Z,16.33
2023-05-14T14:34:11.655Z,21.55
2023-05-14T14:36:38.569Z,21.73
2023-05-14T14:39:05.508Z,17.52
2023-05-14T14:41:32.410Z,20.50
2023-05-14T14:43:59.460Z,21.63
2023-05-14T14:46:26.508Z,20.65
2023-05-14T14:48:53.431Z,22.13
2023-05-14T14:51:20.487Z,23.70
2023-05-14T14:53:47.776Z,23.55
2023-05-14T14:56:14.664Z,20.05
2023-05-14T14:58:41.585Z,22.00
2023-05-14T15:01:08.616Z,23.60
2023-05-14T15:03:35.917Z,20.70
2023-05-14T15:06:02.945Z,21.42
2023-05-14T15:08:30.054Z,17.60
2023-05-14T15:10:57.379Z,17.60
2023-05-14T15:13:24.810Z,21.05
2023-05-14T15:15:55.060Z,18.77
2023-05-14T15:18:21.985Z,16.77
2023-05-14T15:20:49.427Z,17.13
2023-05-14T15:23:16.401Z,22.38
2023-05-14T15:25:43.419Z,16.17
2023-05-14T15:28:10.816Z,17.95
2023-05-14T15:30:37.803Z,18.17
2023-05-14T15:33:07.712Z,20.48
2023-05-14T15:35:34.775Z,17.92
2023-05-14T15:38:01.736Z,17.23
2023-05-14T15:40:28.727Z,20.05
2023-05-14T15:42:55.609Z,18.55
2023-05-14T15:45:22.531Z,20.42
2023-05-14T15:47:49.653Z,19.98
2023-05-14T15:50:16.719Z,20.38
2023-05-14T15:52:43.650Z,24.17
2023-05-14T15:55:10.842Z,19.95
2023-05-14T15:57:37.964Z,18.65
2023-05-14T16:00:10.543Z,22.95
2023-05-14T16:02:39.591Z,14.40
2023-05-14T16:05:08.442Z,15.98
2023-05-14T16:07:36.199Z,23.25
2023-05-14T16:10:03.485Z,22.35
2023-05-14T16:12:30.564Z,16.15
2023-05-14T16:14:57.727Z,18.33
2023-05-14T16:17:25.955Z,17.48
2023-05-14T16:19:55.352Z,18.75
2023-05-14T16:22:23.116Z,23.25
2023-05-14T16:24:50.028Z,18.35
2023-05-14T16:27:19.158Z,17.95
2023-05-14T16:29:46.224Z,20.40
2023-05-14T16:32:13.427Z,20.25
2023-05-14T16:34:40.726Z,24.08
2023-05-14T16:37:08.066Z,22.08
2023-05-14T16:39:35.018Z,22.48
2023-05-14T16:42:01.934Z,24.88
2023-05-14T16:44:28.825Z,22.00
2023-05-14T16:46:56.596Z,29.38
2023-05-14T16:49:23.568Z,26.58
2023-05-14T16:51:50.529Z,24.42
2023-05-14T16:54:17.460Z,21.98
2023-05-14T16:56:48.384Z,30.55
2023-05-14T16:59:16.345Z,26.65
2023-05-14T17:01:44.565Z,28.70
2023-05-14T17:04:11.842Z,20.52
2023-05-14T17:06:38.961Z,26.42
2023-05-14T17:09:07.034Z,23.70
2023-05-14T17:11:34.044Z,20.77
2023-05-14T17:14:01.050Z,27.45
2023-05-14T17:16:29.120Z,24.75
2023-05-14T17:18:56.121Z,23.05
2023-05-14T17:21:23.034Z,22.55
2023-05-14T17:23:50.035Z,24.48
2023-05-14T17:26:17.011Z,24.60
2023-05-14T17:28:43.917Z,21.63
2023-05-14T17:31:10.839Z,23.00
2023-05-14T17:33:37.845Z,22.45
2023-05-14T17:36:04.973Z,25.00
2023-05-14T17:38:32.106Z,23.30
2023-05-14T17:40:59.391Z,22.10
2023-05-14T17:43:26.332Z,28.90
2023-05-14T17:45:54.793Z,25.38
2023-05-14T17:48:24.090Z,27.63
2023-05-14T17:50:54.070Z,26.80
2023-05-14T17:53:21.222Z,27.92
2023-05-14T17:55:48.800Z,25.70
2023-05-14T17:58:16.265Z,25.10
2023-05-14T18:00:43.687Z,25.55
2023-05-14T18:03:11.577Z,26.42
2023-05-14T18:05:38.950Z,25.88
2023-05-14T18:08:06.093Z,31.33
2023-05-14T18:10:33.074Z,29.63
2023-05-14T18:12:59.979Z,26.50
2023-05-14T18:15:27.434Z,27.83
2023-05-14T18:17:54.648Z,25.20
2023-05-14T18:20:21.710Z,26.50
2023-05-14T18:22:49.422Z,22.67
2023-05-14T18:25:16.579Z,24.67
2023-05-14T18:27:44.998Z,21.98
2023-05-14T18:30:14.724Z,21.23
2023-05-14T18:32:44.140Z,23.98
2023-05-14T18:35:13.200Z,22.63
2023-05-14T18:37:40.944Z,21.95
2023-05-14T18:40:09.487Z,20.70
2023-05-14T18:42:36.407Z,22.65
2023-05-14T18:45:04.323Z,25.20
2023-05-14T18:47:32.180Z,25.50
2023-05-14T18:50:01.636Z,25.92
2023-05-14T18:52:29.431Z,22.60
2023-05-14T18:54:56.712Z,22.17
2023-05-14T18:57:23.669Z,22.80
2023-05-14T18:59:50.644Z,23.70
2023-05-14T19:02:17.715Z,25.08
2023-05-14T19:04:52.198Z,25.45
2023-05-14T19:07:23.201Z,23.52
2023-05-14T19:09:50.411Z,25.83
2023-05-14T19:12:17.314Z,24.50
2023-05-14T19:14:44.270Z,31.35
2023-05-14T19:17:11.422Z,24.75
2023-05-14T19:19:39.333Z,26.17
2023-05-14T19:22:06.794Z,28.35
2023-05-14T19:24:33.952Z,27.55
2023-05-14T19:27:01.177Z,29.90
2023-05-14T19:29:28.123Z,29.80
2023-05-14T19:31:55.136Z,30.08
2023-05-14T19:34:22.066Z,32.67
2023-05-14T19:36:49.015Z,35.13
2023-05-14T19:39:16.022Z,29.60
2023-05-14T19:41:42.900Z,32.00
2023-05-14T19:44:09.863Z,31.07
2023-05-14T19:46:36.895Z,33.57
2023-05-14T19:49:03.785Z,34.97
2023-05-14T19:51:30.831Z,37.23
2023-05-14T19:53:57.763Z,38.57
2023-05-14T19:56:27.022Z,37.80
2023-05-14T19:58:54.569Z,41.73
2023-05-14T20:01:21.730Z,40.33
2023-05-14T20:03:48.709Z,35.67
2023-05-14T20:06:15.770Z,38.97
2023-05-14T20:08:42.792Z,34.70
2023-05-14T20:11:09.715Z,37.90
2023-05-14T20:13:36.790Z,34.27
2023-05-14T20:16:03.853Z,32.20
2023-05-14T20:18:31.174Z,34.77
2023-05-14T20:20:58.357Z,36.90
2023-05-14T20:23:25.393Z,35.80
2023-05-14T20:25:52.421Z,39.97
2023-05-14T20:28:19.298Z,37.47
2023-05-14T20:30:46.295Z,39.03
2023-05-14T20:33:13.820Z,38.60
2023-05-14T20:35:43.804Z,39.40
2023-05-14T20:38:12.840Z,41.53
2023-05-14T20:40:40.165Z,42.77
2023-05-14T20:43:07.069Z,43.63
2023-05-14T20:45:34.214Z,43.53
2023-05-14T20:48:01.443Z,45.03
2023-05-14T20:50:28.443Z,43.10
2023-05-14T20:52:55.789Z,49.40
2023-05-14T20:55:23.222Z,45.47
2023-05-14T20:57:50.603Z,43.43
2023-05-14T21:00:18.174Z,43.50
2023-05-14T21:02:45.452Z,41.27
2023-05-14T21:05:13.778Z,41.40
2023-05-14T21:07:40.979Z,45.63
2023-05-14T21:10:09.712Z,42.07
2023-05-14T21:12:36.738Z,44.13
2023-05-14T21:15:04.039Z,50.00
2023-05-14T21:17:31.115Z,51.20
2023-05-14T21:19:58.025Z,51.20
2023-05-14T21:22:25.099Z,54.80
2023-05-14T21:24:52.068Z,47.73
2023-05-14T21:27:19.498Z,44.30
2023-05-14T21:29:46.690Z,42.60
2023-05-14T21:32:13.767Z,46.00
2023-05-14T21:34:40.713Z,40.40
2023-05-14T21:37:07.763Z,48.97
2023-05-14T21:39:34.878Z,43.83
2023-05-14T21:42:01.835Z,42.57
2023-05-14T21:44:28.827Z,41.03
2023-05-14T21:46:56.030Z,41.43
2023-05-14T21:49:22.960Z,45.87
2023-05-14T21:51:53.167Z,40.67
2023-05-14T21:54:20.933Z,36.03
2023-05-14T21:56:48.066Z,43.70
2023-05-14T21:59:15.235Z,47.60
2023-05-14T22:02:04.891Z,49.60
2023-05-14T22:04:30.275Z,45.70
2023-05-14T22:06:57.152Z,46.17
2023-05-14T22:09:24.094Z,44.33
2023-05-14T22:11:51.026Z,46.07
2023-05-14T22:14:17.971Z,48.20
2023-05-14T22:16:45.058Z,44.77
2023-05-14T22:19:12.207Z,39.80
2023-05-14T22:21:39.385Z,44.43
2023-05-14T22:24:06.639Z,46.23
2023-05-14T22:26:33.687Z,51.50
2023-05-14T22:29:00.750Z,49.30
2023-05-14T22:31:27.625Z,49.20
2023-05-14T22:33:54.797Z,46.63
2023-05-14T22:36:21.774Z,48.27
2023-05-14T22:38:48.742Z,53.90
2023-05-14T22:41:17.589Z,51.47
2023-05-14T22:43:44.742Z,52.27
2023-05-14T22:46:11.694Z,52.97
2023-05-14T22:48:38.644Z,48.90
2023-05-14T22:51:05.732Z,42.50
2023-05-14T22:53:32.702Z,41.13
2023-05-14T22:55:59.702Z,42.97
2023-05-14T22:58:26.573Z,47.37
2023-05-14T23:00:53.487Z,40.80
2023-05-14T23:03:20.443Z,49.87
2023-05-14T23:05:47.353Z,52.73
2023-05-14T23:08:14.389Z,56.20
2023-05-14T23:10:41.312Z,58.83
2023-05-14T23:13:08.226Z,57.47
2023-05-14T23:15:35.240Z,63.53
2023-05-14T23:18:02.381Z,64.00
2023-05-14T23:20:29.362Z,65.17
2023-05-14T23:22:56.304Z,64.00
2023-05-14T23:25:23.473Z,66.83
2023-05-14T23:27:50.706Z,66.13
2023-05-14T23:30:17.817Z,69.80
2023-05-14T23:32:44.931Z,70.67
2023-05-14T23:35:11.925Z,66.63
2023-05-14T23:37:42.580Z,72.10
2023-05-14T23:40:10.462Z,71.13
2023-05-14T23:42:37.464Z,69.60
2023-05-14T23:45:05.273Z,72.33
2023-05-14T23:47:32.421Z,71.80
2023-05-14T23:49:59.356Z,68.70
2023-05-14T23:52:26.320Z,70.70
2023-05-14T23:54:53.565Z,67.33
2023-05-14T23:57:20.781Z,66.63
2023-05-14T23:59:47.720Z,72.77
